sensor_id;sensor_type;location;lat;lon;timestamp;P1;durP1;ratioP1;P2;durP2;ratioP2
562;SDS011;266;49.514;8.294;2024-03-02T00:01:58;9.07;;;7.20;;
562;SDS011;266;49.514;8.294;2024-03-02T00:04:27;8.97;;;8.03;;
562;SDS011;266;49.514;8.294;2024-03-02T00:06:55;11.00;;;8.87;;
562;SDS011;266;49.514;8.294;2024-03-02T00:09:23;10.20;;;9.10;;
562;SDS011;266;49.514;8.294;2024-03-02T00:11:51;9.27;;;8.03;;
562;SDS011;266;49.514;8.294;2024-03-02T00:14:20;8.27;;;7.30;;
562;SDS011;266;49.514;8.294;2024-03-02T00:16:52;10.17;;;7.80;;
562;SDS011;266;49.514;8.294;2024-03-02T00:19:22;8.67;;;7.80;;
562;SDS011;266;49.514;8.294;2024-03-02T00:21:50;13.40;;;9.10;;
562;SDS011;266;49.514;8.294;2024-03-02T00:24:19;10.20;;;9.03;;
562;SDS011;266;49.514;8.294;2024-03-02T00:26:49;10.63;;;9.50;;
562;SDS011;266;49.514;8.294;2024-03-02T00:29:16;9.30;;;8.37;;
562;SDS011;266;49.514;8.294;2024-03-02T00:31:47;11.47;;;9.13;;
562;SDS011;266;49.514;8.294;2024-03-02T00:34:16;10.40;;;9.30;;
562;SDS011;266;49.514;8.294;2024-03-02T00:36:45;10.70;;;9.60;;
562;SDS011;266;49.514;8.294;2024-03-02T00:39:13;11.10;;;10.00;;
562;SDS011;266;49.514;8.294;2024-03-02T00:41:44;16.33;;;10.73;;
562;SDS011;266;49.514;8.294;2024-03-02T00:44:12;13.53;;;10.37;;
562;SDS011;266;49.514;8.294;2024-03-02T00:46:42;12.27;;;9.40;;
562;SDS011;266;49.514;8.294;2024-03-02T00:49:11;11.27;;;10.17;;
562;SDS011;266;49.514;8.294;2024-03-02T00:51:49;10.23;;;9.23;;
562;SDS011;266;49.514;8.294;2024-03-02T00:54:19;11.10;;;9.83;;
562;SDS011;266;49.514;8.294;2024-03-02T00:56:47;10.97;;;9.93;;
562;SDS011;266;49.514;8.294;2024-03-02T00:59:16;10.80;;;9.70;;
562;SDS011;266;49.514;8.294;2024-03-02T01:01:44;11.13;;;9.40;;
562;SDS011;266;49.514;8.294;2024-03-02T01:04:12;11.30;;;9.73;;
562;SDS011;266;49.514;8.294;2024-03-02T01:06:41;11.20;;;9.60;;
562;SDS011;266;49.514;8.294;2024-03-02T01:09:11;12.60;;;9.47;;
562;SDS011;266;49.514;8.294;2024-03-02T01:11:39;12.07;;;9.30;;
562;SDS011;266;49.514;8.294;2024-03-02T01:14:08;12.03;;;9.53;;
562;SDS011;266;49.514;8.294;2024-03-02T01:16:36;11.00;;;8.50;;
562;SDS011;266;49.514;8.294;2024-03-02T01:19:04;10.63;;;9.50;;
562;SDS011;266;49.514;8.294;2024-03-02T01:21:32;12.77;;;9.87;;
562;SDS011;266;49.514;8.294;2024-03-02T01:24:00;11.10;;;10.00;;
562;SDS011;266;49.514;8.294;2024-03-02T01:26:29;9.37;;;8.37;;
562;SDS011;266;49.514;8.294;2024-03-02T01:28:57;10.67;;;9.60;;
562;SDS011;266;49.514;8.294;2024-03-02T01:31:25;11.90;;;9.80;;
562;SDS011;266;49.514;8.294;2024-03-02T01:33:53;14.87;;;11.70;;
562;SDS011;266;49.514;8.294;2024-03-02T01:36:22;13.50;;;11.10;;
562;SDS011;266;49.514;8.294;2024-03-02T01:38:50;13.17;;;10.70;;
562;SDS011;266;49.514;8.294;2024-03-02T01:41:18;10.13;;;9.07;;
562;SDS011;266;49.514;8.294;2024-03-02T01:43:48;13.10;;;9.43;;
562;SDS011;266;49.514;8.294;2024-03-02T01:46:16;10.77;;;9.67;;
562;SDS011;266;49.514;8.294;2024-03-02T01:48:45;11.70;;;10.47;;
562;SDS011;266;49.514;8.294;2024-03-02T01:51:14;11.57;;;10.20;;
562;SDS011;266;49.514;8.294;2024-03-02T01:53:42;13.17;;;10.93;;
562;SDS011;266;49.514;8.294;2024-03-02T01:56:10;11.30;;;10.20;;
562;SDS011;266;49.514;8.294;2024-03-02T01:58:38;10.53;;;9.33;;
562;SDS011;266;49.514;8.294;2024-03-02T02:01:08;13.03;;;10.00;;
562;SDS011;266;49.514;8.294;2024-03-02T02:03:36;12.97;;;11.77;;
562;SDS011;266;49.514;8.294;2024-03-02T02:06:04;12.20;;;10.57;;
562;SDS011;266;49.514;8.294;2024-03-02T02:08:33;13.33;;;10.40;;
562;SDS011;266;49.514;8.294;2024-03-02T02:11:01;10.33;;;9.33;;
562;SDS011;266;49.514;8.294;2024-03-02T02:13:32;11.10;;;9.10;;
562;SDS011;266;49.514;8.294;2024-03-02T02:16:04;11.03;;;9.50;;
562;SDS011;266;49.514;8.294;2024-03-02T02:18:34;11.80;;;10.50;;
562;SDS011;266;49.514;8.294;2024-03-02T02:21:03;10.83;;;9.80;;
562;SDS011;266;49.514;8.294;2024-03-02T02:23:33;12.40;;;9.60;;
562;SDS011;266;49.514;8.294;2024-03-02T02:26:01;10.63;;;9.53;;
562;SDS011;266;49.514;8.294;2024-03-02T02:28:30;13.43;;;9.87;;
562;SDS011;266;49.514;8.294;2024-03-02T02:30:58;14.87;;;10.17;;
562;SDS011;266;49.514;8.294;2024-03-02T02:33:27;10.60;;;9.10;;
562;SDS011;266;49.514;8.294;2024-03-02T02:35:55;13.20;;;10.63;;
562;SDS011;266;49.514;8.294;2024-03-02T02:38:23;10.00;;;8.80;;
562;SDS011;266;49.514;8.294;2024-03-02T02:40:53;10.13;;;8.53;;
562;SDS011;266;49.514;8.294;2024-03-02T02:43:21;10.27;;;9.07;;
562;SDS011;266;49.514;8.294;2024-03-02T02:45:49;12.00;;;9.37;;
562;SDS011;266;49.514;8.294;2024-03-02T02:48:16;10.17;;;9.07;;
562;SDS011;266;49.514;8.294;2024-03-02T02:50:44;10.23;;;9.33;;
562;SDS011;266;49.514;8.294;2024-03-02T02:53:12;11.23;;;8.73;;
562;SDS011;266;49.514;8.294;2024-03-02T02:55:40;9.67;;;8.30;;
562;SDS011;266;49.514;8.294;2024-03-02T02:58:10;9.70;;;8.80;;
562;SDS011;266;49.514;8.294;2024-03-02T03:00:39;8.53;;;7.63;;
562;SDS011;266;49.514;8.294;2024-03-02T03:03:08;10.40;;;9.30;;
562;SDS011;266;49.514;8.294;2024-03-02T03:05:35;9.77;;;8.50;;
562;SDS011;266;49.514;8.294;2024-03-02T03:08:04;9.63;;;8.73;;
562;SDS011;266;49.514;8.294;2024-03-02T03:10:32;9.63;;;8.37;;
562;SDS011;266;49.514;8.294;2024-03-02T03:13:00;8.50;;;7.80;;
562;SDS011;266;49.514;8.294;2024-03-02T03:15:30;12.20;;;8.60;;
562;SDS011;266;49.514;8.294;2024-03-02T03:17:58;9.57;;;8.60;;
562;SDS011;266;49.514;8.294;2024-03-02T03:20:26;10.83;;;9.37;;
562;SDS011;266;49.514;8.294;2024-03-02T03:22:54;11.70;;;9.43;;
562;SDS011;266;49.514;8.294;2024-03-02T03:25:22;13.03;;;9.40;;
562;SDS011;266;49.514;8.294;2024-03-02T03:27:49;11.27;;;9.70;;
562;SDS011;266;49.514;8.294;2024-03-02T03:30:18;11.80;;;10.70;;
562;SDS011;266;49.514;8.294;2024-03-02T03:32:48;10.53;;;9.43;;
562;SDS011;266;49.514;8.294;2024-03-02T03:35:16;12.57;;;9.67;;
562;SDS011;266;49.514;8.294;2024-03-02T03:37:44;9.67;;;8.73;;
562;SDS011;266;49.514;8.294;2024-03-02T03:40:12;11.40;;;9.20;;
562;SDS011;266;49.514;8.294;2024-03-02T03:42:41;10.03;;;9.00;;
562;SDS011;266;49.514;8.294;2024-03-02T03:45:09;9.10;;;8.20;;
562;SDS011;266;49.514;8.294;2024-03-02T03:47:37;9.50;;;8.40;;
562;SDS011;266;49.514;8.294;2024-03-02T03:50:07;10.43;;;9.30;;
562;SDS011;266;49.514;8.294;2024-03-02T03:52:35;11.53;;;10.27;;
562;SDS011;266;49.514;8.294;2024-03-02T03:55:03;10.03;;;8.97;;
562;SDS011;266;49.514;8.294;2024-03-02T03:57:32;11.80;;;8.77;;
562;SDS011;266;49.514;8.294;2024-03-02T04:00:01;9.57;;;8.37;;
562;SDS011;266;49.514;8.294;2024-03-02T04:02:29;8.23;;;7.43;;
562;SDS011;266;49.514;8.294;2024-03-02T04:04:57;10.50;;;9.40;;
562;SDS011;266;49.514;8.294;2024-03-02T04:07:27;11.77;;;9.50;;
562;SDS011;266;49.514;8.294;2024-03-02T04:09:55;10.50;;;8.17;;
562;SDS011;266;49.514;8.294;2024-03-02T04:12:23;11.57;;;8.83;;
562;SDS011;266;49.514;8.294;2024-03-02T04:14:51;9.30;;;8.03;;
562;SDS011;266;49.514;8.294;2024-03-02T04:17:19;11.37;;;9.00;;
562;SDS011;266;49.514;8.294;2024-03-02T04:19:47;10.93;;;8.10;;
562;SDS011;266;49.514;8.294;2024-03-02T04:22:16;9.40;;;8.50;;
562;SDS011;266;49.514;8.294;2024-03-02T04:24:52;8.67;;;7.80;;
562;SDS011;266;49.514;8.294;2024-03-02T04:27:20;10.00;;;8.73;;
562;SDS011;266;49.514;8.294;2024-03-02T04:29:48;8.97;;;8.03;;
562;SDS011;266;49.514;8.294;2024-03-02T04:32:16;7.90;;;7.10;;
562;SDS011;266;49.514;8.294;2024-03-02T04:34:45;8.63;;;7.83;;
562;SDS011;266;49.514;8.294;2024-03-02T04:37:13;11.60;;;9.00;;
562;SDS011;266;49.514;8.294;2024-03-02T04:39:41;8.67;;;7.80;;
562;SDS011;266;49.514;8.294;2024-03-02T04:42:11;8.60;;;7.70;;
562;SDS011;266;49.514;8.294;2024-03-02T04:44:39;10.53;;;8.43;;
562;SDS011;266;49.514;8.294;2024-03-02T04:47:07;9.67;;;8.43;;
562;SDS011;266;49.514;8.294;2024-03-02T04:49:35;9.87;;;8.00;;
562;SDS011;266;49.514;8.294;2024-03-02T04:52:03;8.53;;;6.20;;
562;SDS011;266;49.514;8.294;2024-03-02T04:54:31;10.10;;;8.97;;
562;SDS011;266;49.514;8.294;2024-03-02T04:57:21;9.00;;;8.10;;
562;SDS011;266;49.514;8.294;2024-03-02T04:59:47;9.80;;;8.40;;
562;SDS011;266;49.514;8.294;2024-03-02T05:02:15;10.40;;;8.33;;
562;SDS011;266;49.514;8.294;2024-03-02T05:04:43;8.87;;;8.00;;
562;SDS011;266;49.514;8.294;2024-03-02T05:07:11;9.77;;;8.77;;
562;SDS011;266;49.514;8.294;2024-03-02T05:09:39;9.70;;;8.73;;
562;SDS011;266;49.514;8.294;2024-03-02T05:12:08;11.07;;;7.70;;
562;SDS011;266;49.514;8.294;2024-03-02T05:14:50;9.40;;;8.37;;
562;SDS011;266;49.514;8.294;2024-03-02T05:17:19;8.73;;;7.13;;
562;SDS011;266;49.514;8.294;2024-03-02T05:19:46;9.63;;;7.70;;
562;SDS011;266;49.514;8.294;2024-03-02T05:22:15;8.07;;;7.27;;
562;SDS011;266;49.514;8.294;2024-03-02T05:24:43;11.87;;;8.33;;
562;SDS011;266;49.514;8.294;2024-03-02T05:27:11;8.40;;;7.60;;
562;SDS011;266;49.514;8.294;2024-03-02T05:29:39;11.50;;;7.93;;
562;SDS011;266;49.514;8.294;2024-03-02T05:32:08;8.70;;;7.83;;
562;SDS011;266;49.514;8.294;2024-03-02T05:34:36;8.03;;;7.20;;
562;SDS011;266;49.514;8.294;2024-03-02T05:37:05;11.07;;;7.90;;
562;SDS011;266;49.514;8.294;2024-03-02T05:39:33;8.27;;;7.10;;
562;SDS011;266;49.514;8.294;2024-03-02T05:42:01;8.87;;;8.13;;
562;SDS011;266;49.514;8.294;2024-03-02T05:44:29;8.93;;;8.03;;
562;SDS011;266;49.514;8.294;2024-03-02T05:46:58;7.97;;;6.93;;
562;SDS011;266;49.514;8.294;2024-03-02T05:49:28;12.10;;;7.77;;
562;SDS011;266;49.514;8.294;2024-03-02T05:51:56;8.60;;;7.80;;
562;SDS011;266;49.514;8.294;2024-03-02T05:54:24;8.60;;;7.70;;
562;SDS011;266;49.514;8.294;2024-03-02T05:56:52;8.50;;;7.70;;
562;SDS011;266;49.514;8.294;2024-03-02T05:59:20;10.23;;;7.67;;
562;SDS011;266;49.514;8.294;2024-03-02T06:01:48;8.43;;;7.67;;
562;SDS011;266;49.514;8.294;2024-03-02T06:04:17;9.83;;;8.90;;
562;SDS011;266;49.514;8.294;2024-03-02T06:06:46;8.03;;;7.23;;
562;SDS011;266;49.514;8.294;2024-03-02T06:09:16;8.97;;;7.67;;
562;SDS011;266;49.514;8.294;2024-03-02T06:11:46;7.83;;;7.07;;
562;SDS011;266;49.514;8.294;2024-03-02T06:14:14;8.40;;;7.70;;
562;SDS011;266;49.514;8.294;2024-03-02T06:16:42;7.67;;;6.60;;
562;SDS011;266;49.514;8.294;2024-03-02T06:19:10;8.33;;;7.63;;
562;SDS011;266;49.514;8.294;2024-03-02T06:21:38;7.63;;;6.93;;
562;SDS011;266;49.514;8.294;2024-03-02T06:24:07;8.20;;;7.40;;
562;SDS011;266;49.514;8.294;2024-03-02T06:26:35;8.90;;;7.60;;
562;SDS011;266;49.514;8.294;2024-03-02T06:29:03;7.63;;;7.03;;
562;SDS011;266;49.514;8.294;2024-03-02T06:31:31;8.40;;;7.57;;
562;SDS011;266;49.514;8.294;2024-03-02T06:33:59;9.43;;;6.67;;
562;SDS011;266;49.514;8.294;2024-03-02T06:36:29;8.93;;;7.03;;
562;SDS011;266;49.514;8.294;2024-03-02T06:38:57;8.93;;;7.40;;
562;SDS011;266;49.514;8.294;2024-03-02T06:41:27;8.77;;;7.77;;
562;SDS011;266;49.514;8.294;2024-03-02T06:43:55;8.47;;;6.73;;
562;SDS011;266;49.514;8.294;2024-03-02T06:46:26;7.23;;;6.50;;
562;SDS011;266;49.514;8.294;2024-03-02T06:48:54;7.93;;;7.07;;
562;SDS011;266;49.514;8.294;2024-03-02T06:51:23;8.87;;;8.07;;
562;SDS011;266;49.514;8.294;2024-03-02T06:53:51;8.23;;;7.43;;
562;SDS011;266;49.514;8.294;2024-03-02T06:56:18;7.33;;;6.70;;
562;SDS011;266;49.514;8.294;2024-03-02T06:58:48;8.03;;;7.30;;
562;SDS011;266;49.514;8.294;2024-03-02T07:01:16;7.60;;;6.77;;
562;SDS011;266;49.514;8.294;2024-03-02T07:03:44;15.30;;;8.03;;
562;SDS011;266;49.514;8.294;2024-03-02T07:06:12;7.63;;;6.83;;
562;SDS011;266;49.514;8.294;2024-03-02T07:08:40;7.33;;;6.73;;
562;SDS011;266;49.514;8.294;2024-03-02T07:11:08;8.33;;;7.13;;
562;SDS011;266;49.514;8.294;2024-03-02T07:13:36;7.93;;;6.40;;
562;SDS011;266;49.514;8.294;2024-03-02T07:16:06;8.93;;;7.33;;
562;SDS011;266;49.514;8.294;2024-03-02T07:18:54;8.93;;;6.90;;
562;SDS011;266;49.514;8.294;2024-03-02T07:21:23;7.93;;;7.13;;
562;SDS011;266;49.514;8.294;2024-03-02T07:23:51;7.10;;;6.40;;
562;SDS011;266;49.514;8.294;2024-03-02T07:26:19;8.33;;;7.63;;
562;SDS011;266;49.514;8.294;2024-03-02T07:28:52;7.73;;;7.00;;
562;SDS011;266;49.514;8.294;2024-03-02T07:31:21;8.10;;;7.40;;
562;SDS011;266;49.514;8.294;2024-03-02T07:33:50;9.10;;;7.97;;
562;SDS011;266;49.514;8.294;2024-03-02T07:36:18;10.23;;;8.10;;
562;SDS011;266;49.514;8.294;2024-03-02T07:38:46;9.40;;;8.07;;
562;SDS011;266;49.514;8.294;2024-03-02T07:41:16;9.73;;;7.87;;
562;SDS011;266;49.514;8.294;2024-03-02T07:43:44;9.23;;;7.97;;
562;SDS011;266;49.514;8.294;2024-03-02T07:46:12;8.70;;;7.20;;
562;SDS011;266;49.514;8.294;2024-03-02T07:48:43;8.90;;;8.00;;
562;SDS011;266;49.514;8.294;2024-03-02T07:51:11;10.70;;;7.70;;
562;SDS011;266;49.514;8.294;2024-03-02T07:53:40;9.40;;;8.40;;
562;SDS011;266;49.514;8.294;2024-03-02T07:56:08;7.87;;;6.80;;
562;SDS011;266;49.514;8.294;2024-03-02T07:58:36;8.73;;;7.83;;
562;SDS011;266;49.514;8.294;2024-03-02T08:01:04;8.50;;;7.60;;
562;SDS011;266;49.514;8.294;2024-03-02T08:03:32;9.67;;;7.77;;
562;SDS011;266;49.514;8.294;2024-03-02T08:06:02;13.57;;;8.30;;
562;SDS011;266;49.514;8.294;2024-03-02T08:08:31;9.00;;;8.20;;
562;SDS011;266;49.514;8.294;2024-03-02T08:10:59;13.47;;;9.40;;
562;SDS011;266;49.514;8.294;2024-03-02T08:13:27;8.63;;;7.83;;
562;SDS011;266;49.514;8.294;2024-03-02T08:15:55;9.43;;;8.00;;
562;SDS011;266;49.514;8.294;2024-03-02T08:18:23;10.27;;;8.90;;
562;SDS011;266;49.514;8.294;2024-03-02T08:20:52;8.93;;;8.07;;
562;SDS011;266;49.514;8.294;2024-03-02T08:23:21;11.47;;;7.47;;
562;SDS011;266;49.514;8.294;2024-03-02T08:25:49;10.67;;;8.50;;
562;SDS011;266;49.514;8.294;2024-03-02T08:28:17;9.53;;;8.53;;
562;SDS011;266;49.514;8.294;2024-03-02T08:30:46;8.73;;;7.73;;
562;SDS011;266;49.514;8.294;2024-03-02T08:33:14;8.83;;;8.07;;
562;SDS011;266;49.514;8.294;2024-03-02T08:35:42;10.37;;;8.30;;
562;SDS011;266;49.514;8.294;2024-03-02T08:38:10;10.37;;;8.40;;
562;SDS011;266;49.514;8.294;2024-03-02T08:40:39;14.07;;;8.93;;
562;SDS011;266;49.514;8.294;2024-03-02T08:43:07;8.83;;;8.03;;
562;SDS011;266;49.514;8.294;2024-03-02T08:45:35;10.80;;;8.23;;
562;SDS011;266;49.514;8.294;2024-03-02T08:48:04;9.50;;;8.60;;
562;SDS011;266;49.514;8.294;2024-03-02T08:50:33;9.07;;;8.23;;
562;SDS011;266;49.514;8.294;2024-03-02T08:53:02;10.67;;;8.27;;
562;SDS011;266;49.514;8.294;2024-03-02T08:55:30;11.33;;;8.33;;
562;SDS011;266;49.514;8.294;2024-03-02T08:58:00;9.20;;;7.53;;
562;SDS011;266;49.514;8.294;2024-03-02T09:00:28;8.47;;;6.73;;
562;SDS011;266;49.514;8.294;2024-03-02T09:02:56;6.90;;;6.27;;
562;SDS011;266;49.514;8.294;2024-03-02T09:05:24;7.47;;;6.67;;
562;SDS011;266;49.514;8.294;2024-03-02T09:07:52;7.10;;;6.40;;
562;SDS011;266;49.514;8.294;2024-03-02T09:10:20;7.97;;;6.57;;
562;SDS011;266;49.514;8.294;2024-03-02T09:12:51;6.93;;;6.27;;
562;SDS011;266;49.514;8.294;2024-03-02T09:15:22;7.73;;;5.73;;
562;SDS011;266;49.514;8.294;2024-03-02T09:17:50;9.27;;;6.93;;
562;SDS011;266;49.514;8.294;2024-03-02T09:20:19;5.40;;;4.90;;
562;SDS011;266;49.514;8.294;2024-03-02T09:22:47;6.97;;;6.17;;
562;SDS011;266;49.514;8.294;2024-03-02T09:25:15;6.37;;;5.70;;
562;SDS011;266;49.514;8.294;2024-03-02T09:27:43;6.13;;;5.53;;
562;SDS011;266;49.514;8.294;2024-03-02T09:30:11;5.63;;;5.13;;
562;SDS011;266;49.514;8.294;2024-03-02T09:32:42;7.93;;;5.50;;
562;SDS011;266;49.514;8.294;2024-03-02T09:35:12;6.97;;;5.53;;
562;SDS011;266;49.514;8.294;2024-03-02T09:37:40;7.37;;;6.30;;
562;SDS011;266;49.514;8.294;2024-03-02T09:40:08;5.83;;;5.23;;
562;SDS011;266;49.514;8.294;2024-03-02T09:42:37;6.47;;;5.60;;
562;SDS011;266;49.514;8.294;2024-03-02T09:45:06;5.97;;;5.40;;
562;SDS011;266;49.514;8.294;2024-03-02T09:47:34;6.93;;;6.23;;
562;SDS011;266;49.514;8.294;2024-03-02T09:50:04;5.30;;;4.80;;
562;SDS011;266;49.514;8.294;2024-03-02T09:52:33;5.20;;;4.80;;
562;SDS011;266;49.514;8.294;2024-03-02T09:55:02;5.67;;;5.10;;
562;SDS011;266;49.514;8.294;2024-03-02T09:57:32;6.63;;;5.57;;
562;SDS011;266;49.514;8.294;2024-03-02T10:02:34;5.67;;;5.10;;
562;SDS011;266;49.514;8.294;2024-03-02T10:05:03;4.90;;;4.50;;
562;SDS011;266;49.514;8.294;2024-03-02T10:07:32;5.60;;;5.07;;
562;SDS011;266;49.514;8.294;2024-03-02T10:10:00;5.93;;;5.33;;
562;SDS011;266;49.514;8.294;2024-03-02T10:12:41;5.67;;;5.13;;
562;SDS011;266;49.514;8.294;2024-03-02T10:15:10;6.37;;;5.60;;
562;SDS011;266;49.514;8.294;2024-03-02T10:17:38;6.33;;;5.33;;
562;SDS011;266;49.514;8.294;2024-03-02T10:20:23;4.87;;;4.47;;
562;SDS011;266;49.514;8.294;2024-03-02T10:22:52;4.67;;;4.27;;
562;SDS011;266;49.514;8.294;2024-03-02T10:25:29;5.30;;;4.77;;
562;SDS011;266;49.514;8.294;2024-03-02T10:28:16;5.40;;;4.60;;
562;SDS011;266;49.514;8.294;2024-03-02T10:30:47;4.70;;;4.30;;
562;SDS011;266;49.514;8.294;2024-03-02T10:33:15;5.07;;;4.63;;
562;SDS011;266;49.514;8.294;2024-03-02T10:35:46;7.63;;;4.23;;
562;SDS011;266;49.514;8.294;2024-03-02T10:38:19;5.50;;;4.33;;
562;SDS011;266;49.514;8.294;2024-03-02T10:40:48;5.93;;;3.97;;
562;SDS011;266;49.514;8.294;2024-03-02T10:43:16;3.83;;;3.53;;
562;SDS011;266;49.514;8.294;2024-03-02T10:45:46;6.13;;;4.60;;
562;SDS011;266;49.514;8.294;2024-03-02T10:48:16;3.90;;;3.50;;
562;SDS011;266;49.514;8.294;2024-03-02T10:50:44;4.13;;;3.77;;
562;SDS011;266;49.514;8.294;2024-03-02T10:53:16;4.80;;;4.40;;
562;SDS011;266;49.514;8.294;2024-03-02T10:55:44;4.20;;;3.80;;
562;SDS011;266;49.514;8.294;2024-03-02T10:58:19;4.57;;;3.67;;
562;SDS011;266;49.514;8.294;2024-03-02T11:00:47;4.37;;;3.97;;
562;SDS011;266;49.514;8.294;2024-03-02T11:03:16;4.27;;;3.87;;
562;SDS011;266;49.514;8.294;2024-03-02T11:05:46;5.23;;;4.07;;
562;SDS011;266;49.514;8.294;2024-03-02T11:08:17;4.43;;;4.03;;
562;SDS011;266;49.514;8.294;2024-03-02T11:10:48;3.93;;;3.53;;
562;SDS011;266;49.514;8.294;2024-03-02T11:13:22;4.50;;;4.20;;
562;SDS011;266;49.514;8.294;2024-03-02T11:15:54;4.40;;;4.00;;
562;SDS011;266;49.514;8.294;2024-03-02T11:18:26;5.20;;;4.10;;
562;SDS011;266;49.514;8.294;2024-03-02T11:21:01;4.80;;;4.30;;
562;SDS011;266;49.514;8.294;2024-03-02T11:23:31;6.73;;;3.70;;
562;SDS011;266;49.514;8.294;2024-03-02T11:28:45;3.23;;;2.93;;
562;SDS011;266;49.514;8.294;2024-03-02T11:31:14;4.87;;;4.20;;
562;SDS011;266;49.514;8.294;2024-03-02T11:33:42;4.60;;;3.67;;
562;SDS011;266;49.514;8.294;2024-03-02T11:36:11;3.90;;;3.50;;
562;SDS011;266;49.514;8.294;2024-03-02T11:38:40;6.80;;;4.23;;
562;SDS011;266;49.514;8.294;2024-03-02T11:41:12;3.87;;;3.20;;
562;SDS011;266;49.514;8.294;2024-03-02T11:43:40;3.60;;;3.27;;
562;SDS011;266;49.514;8.294;2024-03-02T11:46:10;4.77;;;3.87;;
562;SDS011;266;49.514;8.294;2024-03-02T11:48:39;3.53;;;3.23;;
562;SDS011;266;49.514;8.294;2024-03-02T11:51:10;3.33;;;2.97;;
562;SDS011;266;49.514;8.294;2024-03-02T11:53:40;3.00;;;2.80;;
562;SDS011;266;49.514;8.294;2024-03-02T11:56:10;2.93;;;2.73;;
562;SDS011;266;49.514;8.294;2024-03-02T11:58:41;3.00;;;2.40;;
562;SDS011;266;49.514;8.294;2024-03-02T12:01:11;3.63;;;2.80;;
562;SDS011;266;49.514;8.294;2024-03-02T12:03:40;3.17;;;2.83;;
562;SDS011;266;49.514;8.294;2024-03-02T12:06:08;3.47;;;2.77;;
562;SDS011;266;49.514;8.294;2024-03-02T12:08:38;3.30;;;2.70;;
562;SDS011;266;49.514;8.294;2024-03-02T12:11:12;2.93;;;2.70;;
562;SDS011;266;49.514;8.294;2024-03-02T12:13:51;2.97;;;2.37;;
562;SDS011;266;49.514;8.294;2024-03-02T12:16:22;3.10;;;2.80;;
562;SDS011;266;49.514;8.294;2024-03-02T12:18:51;3.20;;;2.97;;
562;SDS011;266;49.514;8.294;2024-03-02T12:21:19;4.83;;;2.90;;
562;SDS011;266;49.514;8.294;2024-03-02T12:23:49;2.60;;;2.40;;
562;SDS011;266;49.514;8.294;2024-03-02T12:26:18;3.13;;;2.80;;
562;SDS011;266;49.514;8.294;2024-03-02T12:28:48;2.90;;;2.30;;
562;SDS011;266;49.514;8.294;2024-03-02T12:31:16;2.83;;;2.60;;
562;SDS011;266;49.514;8.294;2024-03-02T12:33:44;3.77;;;3.07;;
562;SDS011;266;49.514;8.294;2024-03-02T12:36:13;2.40;;;1.83;;
562;SDS011;266;49.514;8.294;2024-03-02T12:38:43;2.57;;;2.23;;
562;SDS011;266;49.514;8.294;2024-03-02T12:41:16;2.40;;;2.20;;
562;SDS011;266;49.514;8.294;2024-03-02T12:43:44;3.27;;;2.97;;
562;SDS011;266;49.514;8.294;2024-03-02T12:46:12;3.27;;;2.97;;
562;SDS011;266;49.514;8.294;2024-03-02T12:48:40;3.27;;;2.67;;
562;SDS011;266;49.514;8.294;2024-03-02T12:51:08;2.50;;;2.30;;
562;SDS011;266;49.514;8.294;2024-03-02T12:53:37;1.97;;;1.83;;
562;SDS011;266;49.514;8.294;2024-03-02T12:56:06;2.63;;;2.37;;
562;SDS011;266;49.514;8.294;2024-03-02T12:58:40;3.23;;;2.00;;
562;SDS011;266;49.514;8.294;2024-03-02T13:01:08;2.40;;;2.17;;
562;SDS011;266;49.514;8.294;2024-03-02T13:03:37;2.07;;;1.90;;
562;SDS011;266;49.514;8.294;2024-03-02T13:06:06;3.77;;;2.93;;
562;SDS011;266;49.514;8.294;2024-03-02T13:08:34;2.60;;;2.40;;
562;SDS011;266;49.514;8.294;2024-03-02T13:11:03;2.30;;;2.10;;
562;SDS011;266;49.514;8.294;2024-03-02T13:13:33;1.70;;;1.60;;
562;SDS011;266;49.514;8.294;2024-03-02T13:16:03;2.30;;;2.10;;
562;SDS011;266;49.514;8.294;2024-03-02T13:18:33;1.60;;;1.37;;
562;SDS011;266;49.514;8.294;2024-03-02T13:21:01;1.87;;;1.40;;
562;SDS011;266;49.514;8.294;2024-03-02T13:23:30;2.07;;;1.87;;
562;SDS011;266;49.514;8.294;2024-03-02T13:25:58;7.70;;;2.20;;
562;SDS011;266;49.514;8.294;2024-03-02T13:28:26;1.63;;;1.50;;
562;SDS011;266;49.514;8.294;2024-03-02T13:30:54;1.70;;;1.60;;
562;SDS011;266;49.514;8.294;2024-03-02T13:33:24;1.50;;;1.40;;
562;SDS011;266;49.514;8.294;2024-03-02T13:35:52;1.20;;;1.10;;
562;SDS011;266;49.514;8.294;2024-03-02T13:38:20;0.93;;;0.77;;
562;SDS011;266;49.514;8.294;2024-03-02T13:40:48;0.80;;;0.80;;
562;SDS011;266;49.514;8.294;2024-03-02T13:43:18;0.80;;;0.80;;
562;SDS011;266;49.514;8.294;2024-03-02T13:45:46;1.07;;;0.97;;
562;SDS011;266;49.514;8.294;2024-03-02T13:48:27;1.00;;;0.90;;
562;SDS011;266;49.514;8.294;2024-03-02T13:50:55;1.30;;;1.20;;
562;SDS011;266;49.514;8.294;2024-03-02T13:53:24;1.10;;;1.00;;
562;SDS011;266;49.514;8.294;2024-03-02T13:55:52;0.70;;;0.60;;
562;SDS011;266;49.514;8.294;2024-03-02T13:58:21;0.90;;;0.80;;
562;SDS011;266;49.514;8.294;2024-03-02T14:00:50;1.00;;;0.90;;
562;SDS011;266;49.514;8.294;2024-03-02T14:03:18;0.70;;;0.70;;
562;SDS011;266;49.514;8.294;2024-03-02T14:05:50;0.80;;;0.80;;
562;SDS011;266;49.514;8.294;2024-03-02T14:08:19;0.70;;;0.60;;
562;SDS011;266;49.514;8.294;2024-03-02T14:10:47;1.27;;;0.80;;
562;SDS011;266;49.514;8.294;2024-03-02T14:13:15;1.07;;;0.97;;
562;SDS011;266;49.514;8.294;2024-03-02T14:15:43;1.23;;;1.13;;
562;SDS011;266;49.514;8.294;2024-03-02T14:18:15;0.90;;;0.90;;
562;SDS011;266;49.514;8.294;2024-03-02T14:20:43;1.10;;;1.00;;
562;SDS011;266;49.514;8.294;2024-03-02T14:23:13;1.30;;;1.20;;
562;SDS011;266;49.514;8.294;2024-03-02T14:25:41;1.67;;;1.30;;
562;SDS011;266;49.514;8.294;2024-03-02T14:28:09;1.30;;;1.20;;
562;SDS011;266;49.514;8.294;2024-03-02T14:30:58;1.20;;;1.10;;
562;SDS011;266;49.514;8.294;2024-03-02T14:33:27;1.40;;;1.17;;
562;SDS011;266;49.514;8.294;2024-03-02T14:35:56;2.03;;;1.83;;
562;SDS011;266;49.514;8.294;2024-03-02T14:38:25;2.40;;;1.47;;
562;SDS011;266;49.514;8.294;2024-03-02T14:40:53;1.70;;;1.60;;
562;SDS011;266;49.514;8.294;2024-03-02T14:43:21;3.20;;;3.00;;
562;SDS011;266;49.514;8.294;2024-03-02T14:45:49;2.60;;;2.40;;
562;SDS011;266;49.514;8.294;2024-03-02T14:48:17;1.80;;;1.70;;
562;SDS011;266;49.514;8.294;2024-03-02T14:50:45;1.53;;;1.43;;
562;SDS011;266;49.514;8.294;2024-03-02T14:53:13;1.80;;;1.70;;
562;SDS011;266;49.514;8.294;2024-03-02T14:55:43;3.53;;;2.40;;
562;SDS011;266;49.514;8.294;2024-03-02T14:58:10;2.07;;;1.67;;
562;SDS011;266;49.514;8.294;2024-03-02T15:00:39;2.30;;;2.00;;
562;SDS011;266;49.514;8.294;2024-03-02T15:03:07;2.47;;;2.27;;
562;SDS011;266;49.514;8.294;2024-03-02T15:05:35;5.23;;;2.57;;
562;SDS011;266;49.514;8.294;2024-03-02T15:08:03;2.30;;;1.93;;
562;SDS011;266;49.514;8.294;2024-03-02T15:10:34;3.40;;;2.40;;
562;SDS011;266;49.514;8.294;2024-03-02T15:13:04;2.60;;;2.30;;
562;SDS011;266;49.514;8.294;2024-03-02T15:15:32;2.37;;;2.17;;
562;SDS011;266;49.514;8.294;2024-03-02T15:18:01;3.00;;;2.40;;
562;SDS011;266;49.514;8.294;2024-03-02T15:20:32;2.00;;;1.90;;
562;SDS011;266;49.514;8.294;2024-03-02T15:23:00;2.60;;;2.40;;
562;SDS011;266;49.514;8.294;2024-03-02T15:25:28;2.07;;;1.93;;
562;SDS011;266;49.514;8.294;2024-03-02T15:27:56;2.43;;;2.23;;
562;SDS011;266;49.514;8.294;2024-03-02T15:30:26;3.27;;;2.10;;
562;SDS011;266;49.514;8.294;2024-03-02T15:32:54;2.20;;;2.00;;
562;SDS011;266;49.514;8.294;2024-03-02T15:35:22;2.37;;;2.17;;
562;SDS011;266;49.514;8.294;2024-03-02T15:37:51;2.40;;;2.20;;
562;SDS011;266;49.514;8.294;2024-03-02T15:40:19;2.03;;;1.83;;
562;SDS011;266;49.514;8.294;2024-03-02T15:42:47;2.70;;;2.13;;
562;SDS011;266;49.514;8.294;2024-03-02T15:45:15;1.90;;;1.80;;
562;SDS011;266;49.514;8.294;2024-03-02T15:47:45;2.50;;;2.27;;
562;SDS011;266;49.514;8.294;2024-03-02T15:50:14;2.80;;;2.30;;
562;SDS011;266;49.514;8.294;2024-03-02T15:52:43;2.17;;;1.87;;
562;SDS011;266;49.514;8.294;2024-03-02T15:55:12;2.33;;;2.13;;
562;SDS011;266;49.514;8.294;2024-03-02T15:57:40;2.40;;;1.97;;